WetterOnline ( https://www.wetteronline.de )

Wetter aktuell Itzehoe

Aktuelles Wetter: Itzehoe (26m)

6-stündlich | Neueste Meldungen
Ortszeit Temperatur Wetter
Mi, 03.03. 19:00 5.2° C bewölkt
Mi, 03.03. 13:00 11.4° C wolkenlos
Mi, 03.03. 7:00 -1.3° C wolkenlos
Mi, 03.03. 1:00 1.5° C wolkenlos
Di, 02.03. 19:00 5.1° C wolkenlos
Di, 02.03. 13:00 4.8° C bedeckt
Di, 02.03. 7:00 -3.2° C wolkenlos
Di, 02.03. 1:00 -0.1° C Nebel
Ortszeit Temperatur Wetter
Mi, 03.03. 22:00 2.9° C bedeckt
Mi, 03.03. 21:50 2.9° C bedeckt
Mi, 03.03. 21:40 2.9° C bedeckt
Mi, 03.03. 21:30 3.0° C bewölkt
Mi, 03.03. 21:20 3.0° C bewölkt
Mi, 03.03. 21:10 3.1° C bewölkt
Mi, 03.03. 21:00 3.1° C bedeckt
Mi, 03.03. 20:30 3.4° C bedeckt
Mi, 03.03. 20:00 3.6° C bedeckt
Mi, 03.03. 19:30 3.9° C Nebel
Mi, 03.03. 19:00 5.2° C bewölkt
Ortszeit Relative Feuchte Sichtweite
Mi, 03.03. 19:00 96% 2.9 km
Mi, 03.03. 13:00 64% 23 km
Mi, 03.03. 7:00 99% 3.2 km
Mi, 03.03. 1:00 99% 2.1 km
Di, 02.03. 19:00 97% 8 km
Di, 02.03. 13:00 99% 2.7 km
Di, 02.03. 7:00 96% 10 km
Di, 02.03. 1:00 100% <100 m
Ortszeit Relative Feuchte Sichtweite
Mi, 03.03. 22:00 99% 1.3 km
Mi, 03.03. 21:50 99% -
Mi, 03.03. 21:40 99% -
Mi, 03.03. 21:30 98% 2.7 km
Mi, 03.03. 21:20 98% -
Mi, 03.03. 21:10 99% -
Mi, 03.03. 21:00 99% 2.4 km
Mi, 03.03. 20:30 100% 1.0 km
Mi, 03.03. 20:00 99% 1.5 km
Mi, 03.03. 19:30 99% 0.3 km
Mi, 03.03. 19:00 96% 2.9 km
Ortszeit Niederschlagsmenge Niederschlagsart
Mi, 03.03. 19:00 0.0 l/m2 in 12 Std. -
Mi, 03.03. 13:00 0.0 l/m2 in 6 Std. -
Mi, 03.03. 7:00 0.0 l/m2 in 12 Std. -
Mi, 03.03. 1:00 0.0 l/m2 in 6 Std. -
Di, 02.03. 19:00 0.0 l/m2 in 12 Std. -
Di, 02.03. 13:00 0.0 l/m2 in 6 Std. -
Di, 02.03. 7:00 0.0 l/m2 in 12 Std. -
Di, 02.03. 1:00 0.0 l/m2 in 6 Std. -
Ortszeit Niederschlagsmenge Niederschlagsart
Mi, 03.03. 22:00 0.0 l/m2 in 1 Std. -
Mi, 03.03. 21:50 keine Meldung -
Mi, 03.03. 21:40 keine Meldung -
Mi, 03.03. 21:30 0.0 l/m2 in 1 Std. -
Mi, 03.03. 21:20 keine Meldung -
Mi, 03.03. 21:10 keine Meldung -
Mi, 03.03. 21:00 0.0 l/m2 in 1 Std. -
Mi, 03.03. 20:30 0.0 l/m2 in 1 Std. -
Mi, 03.03. 20:00 0.0 l/m2 in 1 Std. -
Mi, 03.03. 19:30 0.0 l/m2 in 1 Std. -
Mi, 03.03. 19:00 0.0 l/m2 in 1 Std. -
Ortszeit Stärke Spitze Richtung
km/h Bft. km/h Grad Sektor
Mi, 03.03. 19:00 7 2 29 260° W
Mi, 03.03. 13:00 7 2 15 240° SW
Mi, 03.03. 7:00 4 1 11 90° O
Mi, 03.03. 1:00 4 1 11 80° O
Di, 02.03. 19:00 4 1 18 50° NO
Di, 02.03. 13:00 4 1 11 120° SO
Di, 02.03. 7:00 4 1 7 40° NO
Di, 02.03. 1:00 0 0 7 - -
Ortszeit Stärke Spitze Richtung
km/h Bft. km/h Grad Sektor
Mi, 03.03. 22:00 11 2 25 280° W
Mi, 03.03. 21:50 11 2 - 280° W
Mi, 03.03. 21:40 9 2 - 270° W
Mi, 03.03. 21:30 13 3 24 270° W
Mi, 03.03. 21:20 13 3 - 270° W
Mi, 03.03. 21:10 9 2 - 270° W
Mi, 03.03. 21:00 11 2 29 280° W
Mi, 03.03. 20:30 11 2 28 280° W
Mi, 03.03. 20:00 11 2 29 270° W
Mi, 03.03. 19:30 9 2 22 280° W
Mi, 03.03. 19:00 7 2 18 260° W
Ortszeit Untergrenze Bedeckung Gattung
total tief tief mittel hoch
Mi, 03.03. 19:00 120 m 7/8 7/8 - - -
Mi, 03.03. 13:00 - 0/8 0/8 - - -
Mi, 03.03. 7:00 - 0/8 0/8 - - -
Mi, 03.03. 1:00 - 0/8 0/8 - - -
Di, 02.03. 19:00 - 0/8 0/8 - - -
Di, 02.03. 13:00 30 m 8/8 8/8 - - -
Di, 02.03. 7:00 - 0/8 0/8 - - -
Di, 02.03. 1:00 <30 m 8/8 0/8 - - -
Ortszeit Bedeckungsgrad in Achtel und Wolkenuntergrenze
Mi, 03.03. 22:00 8(60m)
Mi, 03.03. 21:50 8(60m)
Mi, 03.03. 21:40 8(60m)
Mi, 03.03. 21:30 7(90m)
Mi, 03.03. 21:20 7(90m)
Mi, 03.03. 21:10 7(60m)
Mi, 03.03. 21:00 8(60m)
Mi, 03.03. 20:30 8(30m)
Mi, 03.03. 20:00 8(30m)
Mi, 03.03. 19:30 7(30m)
Mi, 03.03. 19:00 7(120m)
Ortszeit Luftdruck NN (hPa) Tendenz (hPa in 3 Std.)
Mi, 03.03. 19:00 1024 0,0
Mi, 03.03. 13:00 1025 - 1,6
Mi, 03.03. 7:00 1028 - 1,0
Mi, 03.03. 1:00 1031 - 0,7
Di, 02.03. 19:00 1032 - 0,7
Di, 02.03. 13:00 1035 - 0,6
Di, 02.03. 7:00 1035 - 0,2
Di, 02.03. 1:00 1035 - 0,4
Ortszeit Luftdruck NN (hPa) Tendenz (hPa in 3 Std.)
Mi, 03.03. 22:00 1023 - 0,4
Mi, 03.03. 21:50 1023 keine Meldung
Mi, 03.03. 21:40 1023 keine Meldung
Mi, 03.03. 21:30 1023 - 0,1
Mi, 03.03. 21:20 1023 keine Meldung
Mi, 03.03. 21:10 1023 keine Meldung
Mi, 03.03. 21:00 1023 0,0
Mi, 03.03. 20:30 1023 0,0
Mi, 03.03. 20:00 1024 + 0,1
Mi, 03.03. 19:30 1024 + 0,2
Mi, 03.03. 19:00 1024 0,0
Ortszeit Schneehöhe (cm)
Mi, 03.03. 19:00 -
Mi, 03.03. 13:00 -
Mi, 03.03. 7:00 -
Mi, 03.03. 1:00 -
Di, 02.03. 19:00 -
Di, 02.03. 13:00 -
Di, 02.03. 7:00 -
Di, 02.03. 1:00 -
Ortszeit Schneehöhe (cm)
Mi, 03.03. 22:00 -
Mi, 03.03. 21:50 -
Mi, 03.03. 21:40 -
Mi, 03.03. 21:30 -
Mi, 03.03. 21:20 -
Mi, 03.03. 21:10 -
Mi, 03.03. 21:00 -
Mi, 03.03. 20:30 -
Mi, 03.03. 20:00 -
Mi, 03.03. 19:30 -
Mi, 03.03. 19:00 -
Link zu dieser Seite / Seite empfehlen

Das Wetter in ...